This is the latest recevied weather packets stored in our database for station/object W2DRT. If no packets are shown the sender has not sent any weather packets the latest 10 day(s).
| Time | Temp. | Humidity | Pressure | Rain* | Wind** | Luminosity | Snow |
|---|---|---|---|---|---|---|---|
| 1777303980 | 17.78° C | 51% | 1025.5 hPa | - | - | - | - |
| 1777303380 | 17.22° C | 54% | 1025.1 hPa | - | - | - | - |
| 1777300360 | 15.56° C | 62% | 1025.5 hPa | - | - | - | - |
| 1777299760 | 15° C | 65% | 1025.5 hPa | - | - | - | - |
| 1777299155 | 15° C | 66% | 1025.5 hPa | - | - | - | - |
| 1777298554 | 14.44° C | 67% | 1025.5 hPa | - | - | - | - |
| 1777295549 | 12.22° C | 72% | 1025.1 hPa | - | - | - | - |
| 1777294945 | 11.67° C | 74% | 1024.8 hPa | - | - | - | - |
| 1777293742 | 10° C | 76% | 1024.8 hPa | - | - | - | - |
| 1777293138 | 9.44° C | 78% | 1024.8 hPa | - | - | - | - |
| 1777292533 | 8.89° C | 81% | 1024.5 hPa | - | - | - | - |
| 1777291931 | 8.33° C | 82% | 1024.5 hPa | - | - | - | - |
| 1777291332 | 7.78° C | 85% | 1024.5 hPa | - | - | - | - |
| 1777290129 | 6.11° C | 86% | 1024.8 hPa | - | - | - | - |
| 1777288927 | 5° C | 87% | 1024.1 hPa | - | - | - | - |
| 1777288326 | 4.44° C | 86% | 1024.1 hPa | - | - | - | - |
| 1777287726 | 4.44° C | 86% | 1024.1 hPa | - | - | - | - |
| 1777286518 | 3.89° C | 86% | 1023.8 hPa | - | - | - | - |
| 1777285912 | 3.89° C | 86% | 1024.1 hPa | - | - | - | - |
| 1777285313 | 3.89° C | 85% | 1023.8 hPa | - | - | - | - |
| 1777284713 | 3.89° C | 85% | 1024.1 hPa | - | - | - | - |
| 1777284112 | 3.89° C | 85% | 1023.8 hPa | - | - | - | - |
| 1777283512 | 3.89° C | 85% | 1024.1 hPa | - | - | - | - |
| 1777281701 | 3.89° C | 85% | 1023.8 hPa | - | - | - | - |
| 1777281099 | 3.89° C | 84% | 1023.8 hPa | - | - | - | - |
* Rain since midnight (hover to see other rain measurements)
** Current wind speed in m/s (hover to see current wind gust speed)